Decoded Metar for KHUA (REDSTONE in AL, USA) (IATA:HUA) | Meteo·Mobile Aviation Weather
aviador You're here:

KHUA Decoded Metar

REDSTONE in AL, USA
Report Time2019-02-22 14:58:00
UTC Time2019-02-22 15:15:08
Flight Rules lifr LIFR
Wind350° at 04 kt
W.Decomp.*RWY 35: 4.0 kt HW 0.3 kt RCW
W.Rank350° ranks 18
Current wind is below 350° avg. (7.3)
Visibility4828 m
Phenomena:Mist
Clouds:Overcast 003 Hf
Ceiling300 ft
Temp10°C (ISA -4)
Dew Point10°C (100% RH)
AAT8.6°C
QNH1023 hPa
Density Alt82 ft
Elevation686 ft
Report Wrong Elevation
Raw Report
KHUA 221458Z 35004KT 3SM BR OVC003 10/10 A3020 RMK AO2A RAB33E56
OVC V BKN SLP229 P0002 60016=

Extra information for KHUA:More info

Metar Taf Metar & Taf Last 4 Metars F.Rules Stats Wind Profile Meteogram Temp Stats Airport Information Weather charts Add Link Nearby VenuesMetar ALERT Operation Metar Decoded Social comments

AIRNAV info for KHUA